createdAt,value
2023-06-09T00:02:20.516Z,101121.38
2023-06-09T00:04:47.130Z,101114.41
2023-06-09T00:07:16.971Z,101123.94
2023-06-09T00:09:44.525Z,101121.59
2023-06-09T00:12:11.685Z,101107.84
2023-06-09T00:14:38.116Z,101109.38
2023-06-09T00:17:09.132Z,101105.81
2023-06-09T00:19:38.826Z,101110.38
2023-06-09T00:22:06.376Z,101106.66
2023-06-09T00:24:33.049Z,101111.25
2023-06-09T00:26:59.510Z,101113.47
2023-06-09T00:29:26.047Z,101119.41
2023-06-09T00:31:52.701Z,101117.72
2023-06-09T00:34:19.340Z,101116.03
2023-06-09T00:36:45.885Z,101110.59
2023-06-09T00:39:12.351Z,101111.59
2023-06-09T00:41:39.220Z,101110.91
2023-06-09T00:44:06.036Z,101118.22
2023-06-09T00:46:32.670Z,101120.44
2023-06-09T00:48:59.238Z,101120.78
2023-06-09T00:51:25.752Z,101121.81
2023-06-09T00:53:52.223Z,101121.13
2023-06-09T00:56:19.602Z,101126.88
2023-06-09T00:58:46.426Z,101112.63
2023-06-09T01:01:12.959Z,101124.34
2023-06-09T01:03:40.124Z,101118.06
2023-06-09T01:06:14.543Z,101113.31
2023-06-09T01:08:51.149Z,101106.88
2023-06-09T01:11:17.566Z,101111.13
2023-06-09T01:13:54.047Z,101110.41
2023-06-09T01:16:22.773Z,101108.91
2023-06-09T01:18:49.881Z,101105.31
2023-06-09T01:21:25.462Z,101094.97
2023-06-09T01:23:52.638Z,101101.59
2023-06-09T01:26:19.802Z,101104.47
2023-06-09T01:28:47.086Z,101100.25
2023-06-09T01:31:16.219Z,101098.72
2023-06-09T01:33:42.730Z,101102.44
2023-06-09T01:36:09.197Z,101094.66
2023-06-09T01:38:35.670Z,101100.41
2023-06-09T01:41:02.128Z,101097.00
2023-06-09T01:43:28.665Z,101096.00
2023-06-09T01:45:55.125Z,101097.69
2023-06-09T01:48:25.255Z,101093.13
2023-06-09T01:50:54.896Z,101093.97
2023-06-09T01:53:26.955Z,101087.50
2023-06-09T01:55:54.690Z,101088.84
2023-06-09T01:58:24.116Z,101092.25
2023-06-09T02:00:50.578Z,101100.41
2023-06-09T02:03:18.951Z,101096.00
2023-06-09T02:05:45.505Z,101100.75
2023-06-09T02:08:12.183Z,101090.91
2023-06-09T02:10:38.609Z,101100.91
2023-06-09T02:13:17.772Z,101097.38
2023-06-09T02:15:44.946Z,101100.25
2023-06-09T02:18:13.109Z,101096.69
2023-06-09T02:20:40.653Z,101094.28
2023-06-09T02:23:07.467Z,101087.69
2023-06-09T02:25:34.031Z,101079.72
2023-06-09T02:28:04.308Z,101092.59
2023-06-09T02:30:30.881Z,101087.69
2023-06-09T02:33:03.390Z,101087.53
2023-06-09T02:35:30.362Z,101082.41
2023-06-09T02:37:58.764Z,101085.97
2023-06-09T02:40:31.059Z,101085.66
2023-06-09T02:42:57.536Z,101077.34
2023-06-09T02:45:23.987Z,101077.66
2023-06-09T02:47:50.550Z,101085.50
2023-06-09T02:50:17.141Z,101080.91
2023-06-09T02:52:43.737Z,101085.66
2023-06-09T02:55:12.426Z,101090.56
2023-06-09T02:57:38.917Z,101078.03
2023-06-09T03:00:08.150Z,101071.25
2023-06-09T03:02:35.648Z,101069.00
2023-06-09T03:05:02.489Z,101071.56
2023-06-09T03:07:28.906Z,101072.91
2023-06-09T03:09:55.376Z,101071.56
2023-06-09T03:12:21.805Z,101070.38
2023-06-09T03:14:48.209Z,101066.44
2023-06-09T03:17:14.772Z,101060.69
2023-06-09T03:19:41.351Z,101059.34
2023-06-09T03:22:07.837Z,101064.25
2023-06-09T03:24:34.625Z,101069.53
2023-06-09T03:27:01.087Z,101063.41
2023-06-09T03:29:29.944Z,101060.34
2023-06-09T03:31:56.501Z,101062.56
2023-06-09T03:34:23.988Z,101053.91
2023-06-09T03:36:50.573Z,101059.84
2023-06-09T03:39:17.949Z,101049.16
2023-06-09T03:41:44.444Z,101060.88
2023-06-09T03:44:10.863Z,101070.88
2023-06-09T03:46:37.422Z,101061.69
2023-06-09T03:49:03.934Z,101069.16
2023-06-09T03:51:30.433Z,101063.06
2023-06-09T03:53:56.867Z,101060.34
2023-06-09T03:56:23.304Z,101068.69
2023-06-09T03:58:54.295Z,101071.19
2023-06-09T04:01:22.569Z,101066.94
2023-06-09T04:03:49.084Z,101066.97
2023-06-09T04:06:15.576Z,101070.66
2023-06-09T04:08:45.457Z,101070.25
2023-06-09T04:11:12.181Z,101064.09
2023-06-09T04:13:38.643Z,101073.03
2023-06-09T04:16:05.236Z,101077.38
2023-06-09T04:18:32.283Z,101082.03
2023-06-09T04:20:58.740Z,101081.38
2023-06-09T04:23:28.633Z,101085.69
2023-06-09T04:25:56.489Z,101086.22
2023-06-09T04:28:22.914Z,101089.50
2023-06-09T04:30:51.365Z,101089.59
2023-06-09T04:33:19.462Z,101090.84
2023-06-09T04:35:47.928Z,101087.88
2023-06-09T04:38:14.596Z,101093.81
2023-06-09T04:40:41.190Z,101097.28
2023-06-09T04:43:09.239Z,101098.09
2023-06-09T04:45:36.328Z,101097.75
2023-06-09T04:48:03.276Z,101107.94
2023-06-09T04:50:31.877Z,101101.97
2023-06-09T04:52:58.613Z,101097.03
2023-06-09T04:55:26.730Z,101097.94
2023-06-09T04:57:57.565Z,101105.09
2023-06-09T05:00:25.957Z,101107.47
2023-06-09T05:02:52.591Z,101099.91
2023-06-09T05:05:19.315Z,101096.31
2023-06-09T05:07:45.994Z,101108.78
2023-06-09T05:10:12.544Z,101116.13
2023-06-09T05:12:39.588Z,101119.03
2023-06-09T05:15:06.759Z,101115.78
2023-06-09T05:17:43.261Z,101116.16
2023-06-09T05:20:10.765Z,101114.81
2023-06-09T05:22:37.482Z,101117.63
2023-06-09T05:25:04.386Z,101113.66
2023-06-09T05:27:31.226Z,101113.66
2023-06-09T05:29:58.196Z,101115.72
2023-06-09T05:32:24.701Z,101118.00
2023-06-09T05:34:51.170Z,101123.91
2023-06-09T05:37:17.945Z,101126.28
2023-06-09T05:39:44.458Z,101118.78
2023-06-09T05:42:11.020Z,101112.91
2023-06-09T05:44:37.611Z,101119.50
2023-06-09T05:47:04.182Z,101116.22
2023-06-09T05:49:31.147Z,101122.75
2023-06-09T05:51:57.570Z,101113.31
2023-06-09T05:54:24.079Z,101117.06
2023-06-09T05:56:50.690Z,101116.31
2023-06-09T05:59:21.908Z,101116.50
2023-06-09T06:01:48.768Z,101115.41
2023-06-09T06:04:15.345Z,101114.09
2023-06-09T06:06:42.147Z,101110.25
2023-06-09T06:09:10.219Z,101108.03
2023-06-09T06:11:36.912Z,101113.38
2023-06-09T06:14:03.504Z,101112.19
2023-06-09T06:16:30.071Z,101112.88
2023-06-09T06:18:56.589Z,101113.75
2023-06-09T06:21:23.084Z,101116.91
2023-06-09T06:23:49.714Z,101128.09
2023-06-09T06:26:16.610Z,101127.97
2023-06-09T06:28:43.079Z,101126.94
2023-06-09T06:31:10.281Z,101128.03
2023-06-09T06:33:36.996Z,101130.13
2023-06-09T06:36:03.564Z,101153.66
2023-06-09T06:38:29.999Z,101144.22
2023-06-09T06:40:56.461Z,101148.66
2023-06-09T06:43:22.914Z,101162.50
2023-06-09T06:45:49.370Z,101172.00
2023-06-09T06:48:15.815Z,101173.81
2023-06-09T06:50:42.289Z,101188.19
2023-06-09T06:53:11.690Z,101183.13
2023-06-09T06:55:38.549Z,101182.00
2023-06-09T06:58:05.122Z,101185.22
2023-06-09T07:00:31.612Z,101191.53
2023-06-09T07:02:58.361Z,101186.66
2023-06-09T07:05:24.988Z,101197.75
2023-06-09T07:07:51.478Z,101197.75
2023-06-09T07:10:18.030Z,101197.00
2023-06-09T07:12:44.577Z,101186.94
2023-06-09T07:15:11.319Z,101182.22
2023-06-09T07:17:37.931Z,101177.59
2023-06-09T07:20:05.311Z,101189.31
2023-06-09T07:22:34.957Z,101183.09
2023-06-09T07:25:02.094Z,101187.22
2023-06-09T07:27:29.123Z,101188.72
2023-06-09T07:29:55.584Z,101194.00
2023-06-09T07:32:22.036Z,101191.72
2023-06-09T07:34:48.684Z,101191.56
2023-06-09T07:37:15.506Z,101190.81
2023-06-09T07:39:42.205Z,101188.19
2023-06-09T07:42:08.757Z,101186.31
2023-06-09T07:44:35.304Z,101176.38
2023-06-09T07:47:02.838Z,101171.13
2023-06-09T07:49:29.348Z,101174.81
2023-06-09T07:51:57.014Z,101175.09
2023-06-09T07:54:24.085Z,101174.91
2023-06-09T07:56:51.461Z,101176.41
2023-06-09T07:59:18.398Z,101178.56
2023-06-09T08:01:45.042Z,101181.19
2023-06-09T08:04:11.844Z,101184.97
2023-06-09T08:06:38.950Z,101182.78
2023-06-09T08:09:05.681Z,101180.84
2023-06-09T08:11:32.161Z,101177.13
2023-06-09T08:13:59.158Z,101179.69
2023-06-09T08:16:25.772Z,101181.19
2023-06-09T08:18:52.286Z,101178.13
2023-06-09T08:21:18.879Z,101175.94
2023-06-09T08:23:45.846Z,101179.72
2023-06-09T08:26:12.371Z,101172.75
2023-06-09T08:28:39.544Z,101174.50
2023-06-09T08:31:07.064Z,101185.91
2023-06-09T08:33:34.443Z,101181.50
2023-06-09T08:36:03.969Z,101182.00
2023-06-09T08:38:33.912Z,101186.06
2023-06-09T08:41:10.168Z,101190.88
2023-06-09T08:43:36.862Z,101192.50
2023-06-09T08:46:07.235Z,101190.44
2023-06-09T08:48:36.506Z,101194.84
2023-06-09T08:51:03.129Z,101195.78
2023-06-09T08:53:30.110Z,101201.63
2023-06-09T08:55:56.717Z,101192.56
2023-06-09T08:58:23.615Z,101186.97
2023-06-09T09:00:51.266Z,101191.69
2023-06-09T09:03:21.668Z,101194.84
2023-06-09T09:05:48.323Z,101195.88
2023-06-09T09:08:15.260Z,101194.69
2023-06-09T09:10:46.817Z,101191.75
2023-06-09T09:13:13.334Z,101193.94
2023-06-09T09:15:49.380Z,101186.09
2023-06-09T09:18:17.302Z,101189.66
2023-06-09T09:20:43.924Z,101190.25
2023-06-09T09:23:10.547Z,101193.06
2023-06-09T09:25:37.105Z,101187.59
2023-06-09T09:28:03.585Z,101186.19
2023-06-09T09:30:48.570Z,101188.00
2023-06-09T09:33:16.676Z,101180.19
2023-06-09T09:35:47.256Z,101185.91
2023-06-09T09:38:19.797Z,101190.78
2023-06-09T09:40:49.606Z,101191.38
2023-06-09T09:43:16.241Z,101187.97
2023-06-09T09:45:43.569Z,101186.97
2023-06-09T09:48:11.045Z,101182.91
2023-06-09T09:50:37.908Z,101181.13
2023-06-09T09:55:31.186Z,101172.91
2023-06-09T09:57:58.105Z,101172.41
2023-06-09T10:00:24.558Z,101163.78
2023-06-09T10:02:51.765Z,101164.88
2023-06-09T10:05:18.306Z,101168.56
2023-06-09T10:07:47.358Z,101172.22
2023-06-09T10:10:14.109Z,101173.72
2023-06-09T10:12:40.584Z,101174.69
2023-06-09T10:15:10.380Z,101174.69
2023-06-09T10:17:37.429Z,101173.00
2023-06-09T10:20:09.462Z,101167.84
2023-06-09T10:22:35.958Z,101164.16
2023-06-09T10:25:04.449Z,101171.03
2023-06-09T10:27:32.257Z,101167.84
2023-06-09T10:29:58.739Z,101167.66
2023-06-09T10:32:26.927Z,101165.59
2023-06-09T10:34:53.858Z,101175.25
2023-06-09T10:37:29.461Z,101176.97
2023-06-09T10:40:16.186Z,101182.50
2023-06-09T10:42:51.501Z,101170.06
2023-06-09T10:45:19.872Z,101174.78
2023-06-09T10:47:47.106Z,101174.97
2023-06-09T10:50:27.012Z,101169.97
2023-06-09T10:52:57.025Z,101170.25
2023-06-09T10:55:25.507Z,101161.28
2023-06-09T10:57:54.371Z,101169.97
2023-06-09T11:00:21.051Z,101168.06
2023-06-09T11:02:49.073Z,101172.88
2023-06-09T11:05:17.579Z,101171.38
2023-06-09T11:07:46.572Z,101175.38
2023-06-09T11:10:13.487Z,101182.34
2023-06-09T11:12:43.755Z,101178.66
2023-06-09T11:15:13.047Z,101175.09
2023-06-09T11:17:42.637Z,101170.28
2023-06-09T11:20:22.868Z,101174.81
2023-06-09T11:23:00.022Z,101177.53
2023-06-09T11:25:27.852Z,101177.31
2023-06-09T11:27:57.826Z,101181.19
2023-06-09T11:30:26.430Z,101179.56
2023-06-09T11:32:54.540Z,101173.09
2023-06-09T11:35:31.271Z,101176.56
2023-06-09T11:38:04.332Z,101179.69
2023-06-09T11:40:31.786Z,101180.34
2023-06-09T11:42:59.876Z,101176.22
2023-06-09T11:45:27.702Z,101170.38
2023-06-09T11:47:59.090Z,101166.50
2023-06-09T11:50:28.188Z,101160.94
2023-06-09T11:53:04.793Z,101153.56
2023-06-09T11:55:33.234Z,101156.25
2023-06-09T11:58:02.725Z,101156.47
2023-06-09T12:00:29.733Z,101151.31
2023-06-09T12:02:57.353Z,101147.53
2023-06-09T12:05:25.256Z,101143.75
2023-06-09T12:07:54.830Z,101148.25
2023-06-09T12:10:23.501Z,101145.31
2023-06-09T12:12:50.635Z,101141.66
2023-06-09T12:15:19.753Z,101145.06
2023-06-09T12:18:01.431Z,101140.97
2023-06-09T12:20:37.614Z,101148.47
2023-06-09T12:23:05.629Z,101142.75
2023-06-09T12:25:37.018Z,101140.13
2023-06-09T12:28:29.690Z,101140.41
2023-06-09T12:31:11.632Z,101136.16
2023-06-09T12:33:39.903Z,101136.81
2023-06-09T12:36:10.227Z,101136.56
2023-06-09T12:38:40.939Z,101137.22
2023-06-09T12:41:14.127Z,101136.66
2023-06-09T12:43:51.323Z,101134.41
2023-06-09T12:46:28.586Z,101136.13
2023-06-09T12:49:00.479Z,101125.00
2023-06-09T12:51:27.488Z,101127.13
2023-06-09T12:53:57.239Z,101127.16
2023-06-09T12:56:23.709Z,101128.78
2023-06-09T12:58:52.226Z,101133.59
2023-06-09T13:01:18.791Z,101127.69
2023-06-09T13:03:46.099Z,101117.19
2023-06-09T13:06:12.799Z,101123.78
2023-06-09T13:08:39.844Z,101116.22
2023-06-09T13:11:06.640Z,101113.94
2023-06-09T13:13:34.413Z,101113.91
2023-06-09T13:16:02.837Z,101109.44
2023-06-09T13:18:29.745Z,101114.28
2023-06-09T13:20:56.738Z,101108.75
2023-06-09T13:23:23.653Z,101112.50
2023-06-09T13:25:50.896Z,101113.53
2023-06-09T13:28:20.057Z,101111.22
2023-06-09T13:30:48.574Z,101111.41
2023-06-09T13:33:18.457Z,101108.47
2023-06-09T13:35:46.656Z,101117.09
2023-06-09T13:38:14.595Z,101118.13
2023-06-09T13:40:46.060Z,101117.28
2023-06-09T13:43:14.081Z,101109.84
2023-06-09T13:45:41.114Z,101110.00
2023-06-09T13:48:08.007Z,101108.56
2023-06-09T13:50:36.890Z,101109.38
2023-06-09T13:53:04.696Z,101107.81
2023-06-09T13:55:31.599Z,101101.28
2023-06-09T13:57:59.108Z,101093.50
2023-06-09T14:00:26.164Z,101093.72
2023-06-09T14:02:53.084Z,101097.28
2023-06-09T14:05:21.296Z,101088.91
2023-06-09T14:07:49.950Z,101092.69
2023-06-09T14:10:17.037Z,101087.66
2023-06-09T14:12:49.633Z,101090.59
2023-06-09T14:17:50.978Z,101084.75
2023-06-09T14:20:20.563Z,101088.19
2023-06-09T14:22:48.379Z,101081.91
2023-06-09T14:25:23.727Z,101091.41
2023-06-09T14:27:51.030Z,101095.63
2023-06-09T14:30:19.343Z,101091.19
2023-06-09T14:32:49.884Z,101084.66
2023-06-09T14:35:23.429Z,101080.47
2023-06-09T14:37:51.643Z,101080.66
2023-06-09T14:40:18.675Z,101085.34
2023-06-09T14:42:46.819Z,101083.06
2023-06-09T14:45:21.376Z,101079.50
2023-06-09T14:47:49.806Z,101075.72
2023-06-09T14:50:22.341Z,101077.41
2023-06-09T14:53:01.137Z,101077.84
2023-06-09T14:55:29.371Z,101079.56
2023-06-09T14:57:57.215Z,101069.28
2023-06-09T15:00:25.073Z,101072.00
2023-06-09T15:02:52.461Z,101064.84
2023-06-09T15:05:23.061Z,101064.84
2023-06-09T15:07:52.307Z,101058.47
2023-06-09T15:10:21.554Z,101063.31
2023-06-09T15:12:47.966Z,101059.75
2023-06-09T15:15:19.572Z,101060.13
2023-06-09T15:17:46.730Z,101053.28
2023-06-09T15:20:19.957Z,101052.75
2023-06-09T15:22:47.653Z,101053.09
2023-06-09T15:25:16.142Z,101057.88
2023-06-09T15:27:45.594Z,101051.22
2023-06-09T15:30:14.412Z,101047.16
2023-06-09T15:32:43.218Z,101039.56
2023-06-09T15:35:15.129Z,101043.53
2023-06-09T15:37:41.588Z,101037.16
2023-06-09T15:40:11.000Z,101039.69
2023-06-09T15:42:38.106Z,101047.56
2023-06-09T15:45:04.715Z,101035.13
2023-06-09T15:47:31.295Z,101038.81
2023-06-09T15:49:57.937Z,101036.28
2023-06-09T15:52:24.956Z,101031.47
2023-06-09T15:54:51.774Z,101029.66
2023-06-09T15:57:19.688Z,101034.50
2023-06-09T15:59:46.159Z,101036.41
2023-06-09T16:02:12.558Z,101030.03
2023-06-09T16:04:41.796Z,101036.28
2023-06-09T16:07:09.718Z,101025.72
2023-06-09T16:09:36.221Z,101023.94
2023-06-09T16:12:03.965Z,101017.84
2023-06-09T16:14:31.463Z,101020.19
2023-06-09T16:16:57.976Z,101023.31
2023-06-09T16:19:24.404Z,101023.84
2023-06-09T16:21:50.903Z,101022.50
2023-06-09T16:24:17.470Z,101020.81
2023-06-09T16:26:44.957Z,101026.09
2023-06-09T16:29:11.483Z,101023.53
2023-06-09T16:31:38.010Z,101024.31
2023-06-09T16:34:04.524Z,101025.03
2023-06-09T16:36:30.968Z,101022.63
2023-06-09T16:38:57.414Z,101018.59
2023-06-09T16:41:24.091Z,101022.75
2023-06-09T16:43:50.657Z,101025.19
2023-06-09T16:46:17.180Z,101022.19
2023-06-09T16:48:43.663Z,101021.72
2023-06-09T16:51:10.085Z,101025.94
2023-06-09T16:53:36.548Z,101025.13
2023-06-09T16:56:03.159Z,101023.44
2023-06-09T16:58:29.596Z,101031.41
2023-06-09T17:00:56.059Z,101026.34
2023-06-09T17:03:22.619Z,101037.63
2023-06-09T17:05:49.109Z,101035.31
2023-06-09T17:08:15.766Z,101039.91
2023-06-09T17:10:42.281Z,101033.16
2023-06-09T17:13:08.946Z,101032.69
2023-06-09T17:15:35.787Z,101030.34
2023-06-09T17:18:02.476Z,101035.97
2023-06-09T17:20:29.848Z,101035.41
2023-06-09T17:22:56.278Z,101035.97
2023-06-09T17:25:22.872Z,101035.97
2023-06-09T17:27:49.302Z,101032.75
2023-06-09T17:30:16.363Z,101028.06
2023-06-09T17:32:43.672Z,101030.72
2023-06-09T17:35:11.041Z,101034.50
2023-06-09T17:37:38.858Z,101041.63
2023-06-09T17:40:06.356Z,101048.97
2023-06-09T17:42:32.816Z,101052.88
2023-06-09T17:45:00.037Z,101052.41
2023-06-09T17:47:26.905Z,101059.09
2023-06-09T17:49:53.860Z,101046.88
2023-06-09T17:52:22.252Z,101053.34
2023-06-09T17:54:49.170Z,101049.31
2023-06-09T17:57:15.737Z,101042.34
2023-06-09T17:59:42.228Z,101038.97
2023-06-09T18:02:09.047Z,101045.00
2023-06-09T18:04:35.482Z,101050.44
2023-06-09T18:07:04.004Z,101052.13
2023-06-09T18:09:33.879Z,101057.56
2023-06-09T18:12:00.514Z,101058.91
2023-06-09T18:14:27.067Z,101065.97
2023-06-09T18:16:53.639Z,101058.34
2023-06-09T18:19:20.091Z,101064.19
2023-06-09T18:21:46.744Z,101062.75
2023-06-09T18:24:13.403Z,101057.53
2023-06-09T18:26:40.100Z,101062.59
2023-06-09T18:29:06.802Z,101061.56
2023-06-09T18:31:33.382Z,101059.84
2023-06-09T18:33:59.900Z,101072.09
2023-06-09T18:36:27.867Z,101069.63
2023-06-09T18:38:55.335Z,101072.44
2023-06-09T18:41:21.930Z,101069.06
2023-06-09T18:43:48.448Z,101061.53
2023-06-09T18:46:14.899Z,101057.88
2023-06-09T18:48:55.818Z,101053.06
2023-06-09T18:51:26.948Z,101058.34
2023-06-09T18:53:54.683Z,101050.16
2023-06-09T18:56:21.465Z,101055.97
2023-06-09T18:58:47.891Z,101064.56
2023-06-09T19:01:14.478Z,101074.41
2023-06-09T19:03:41.136Z,101069.25
2023-06-09T19:06:07.858Z,101073.50
2023-06-09T19:08:34.472Z,101081.38
2023-06-09T19:11:00.999Z,101085.06
2023-06-09T19:13:27.456Z,101089.47
2023-06-09T19:15:55.387Z,101085.53
2023-06-09T19:18:22.050Z,101084.31
2023-06-09T19:20:49.976Z,101089.03
2023-06-09T19:23:17.250Z,101087.63
2023-06-09T19:25:43.907Z,101081.38
2023-06-09T19:28:11.538Z,101092.56
2023-06-09T19:30:39.081Z,101092.94
2023-06-09T19:33:07.579Z,101093.31
2023-06-09T19:35:34.177Z,101087.03
2023-06-09T19:38:00.682Z,101090.41
2023-06-09T19:40:27.191Z,101091.91
2023-06-09T19:42:53.651Z,101088.63
2023-06-09T19:45:20.068Z,101093.31
2023-06-09T19:47:46.593Z,101098.25
2023-06-09T19:50:13.598Z,101096.53
2023-06-09T19:52:40.131Z,101104.06
2023-06-09T19:55:07.104Z,101112.59
2023-06-09T19:57:33.929Z,101108.84
2023-06-09T20:00:00.506Z,101123.97
2023-06-09T20:02:27.140Z,101125.50
2023-06-09T20:04:53.808Z,101133.34
2023-06-09T20:07:20.466Z,101135.03
2023-06-09T20:09:46.909Z,101131.28
2023-06-09T20:12:13.463Z,101138.41
2023-06-09T20:14:41.659Z,101140.13
2023-06-09T20:17:08.895Z,101141.97
2023-06-09T20:19:40.912Z,101141.13
2023-06-09T20:22:09.546Z,101141.97
2023-06-09T20:24:36.130Z,101140.47
2023-06-09T20:27:02.642Z,101146.09
2023-06-09T20:29:29.903Z,101151.78
2023-06-09T20:31:56.573Z,101146.66
2023-06-09T20:34:23.119Z,101153.81
2023-06-09T20:36:49.536Z,101143.06
2023-06-09T20:39:16.070Z,101144.47
2023-06-09T20:41:42.819Z,101149.19
2023-06-09T20:44:09.650Z,101148.34
2023-06-09T20:46:36.591Z,101145.41
2023-06-09T20:49:03.143Z,101139.94
2023-06-09T20:51:29.649Z,101142.69
2023-06-09T20:53:57.272Z,101140.34
2023-06-09T20:56:24.061Z,101148.69
2023-06-09T20:58:51.156Z,101136.28
2023-06-09T21:01:18.026Z,101135.63
2023-06-09T21:03:48.713Z,101139.75
2023-06-09T21:06:20.805Z,101136.25
2023-06-09T21:08:50.689Z,101139.16
2023-06-09T21:11:17.547Z,101137.66
2023-06-09T21:13:46.258Z,101135.28
2023-06-09T21:16:12.723Z,101139.91
2023-06-09T21:18:39.290Z,101142.47
2023-06-09T21:21:05.757Z,101144.34
2023-06-09T21:23:32.343Z,101142.81
2023-06-09T21:25:58.857Z,101145.91
2023-06-09T21:28:25.327Z,101148.16
2023-06-09T21:30:51.955Z,101139.69
2023-06-09T21:33:18.383Z,101141.75
2023-06-09T21:35:44.824Z,101137.97
2023-06-09T21:38:11.296Z,101145.16
2023-06-09T21:40:37.746Z,101152.47
2023-06-09T21:43:05.200Z,101145.31
2023-06-09T21:45:33.406Z,101148.22
2023-06-09T21:48:00.006Z,101143.16
2023-06-09T21:50:26.474Z,101144.53
2023-06-09T21:52:52.937Z,101136.09
2023-06-09T21:55:20.704Z,101134.56
2023-06-09T21:57:47.266Z,101136.78
2023-06-09T22:00:14.491Z,101139.84
2023-06-09T22:02:41.903Z,101135.44
2023-06-09T22:05:09.264Z,101138.34
2023-06-09T22:07:36.104Z,101135.78
2023-06-09T22:10:02.622Z,101141.13
2023-06-09T22:12:38.855Z,101138.56
2023-06-09T22:15:07.079Z,101134.16
2023-06-09T22:17:35.497Z,101136.06
2023-06-09T22:20:03.034Z,101150.69
2023-06-09T22:22:29.441Z,101152.41
2023-06-09T22:24:55.894Z,101143.19
2023-06-09T22:27:22.301Z,101142.34
2023-06-09T22:29:48.851Z,101144.41
2023-06-09T22:32:15.460Z,101140.16
2023-06-09T22:34:41.962Z,101139.69
2023-06-09T22:37:08.452Z,101139.34
2023-06-09T22:39:34.889Z,101141.78
2023-06-09T22:42:01.446Z,101142.31
2023-06-09T22:44:27.978Z,101141.81
2023-06-09T22:46:54.724Z,101138.81
2023-06-09T22:49:22.433Z,101136.44
2023-06-09T22:51:50.068Z,101133.19
2023-06-09T22:54:16.633Z,101126.06
2023-06-09T22:56:44.524Z,101118.97
2023-06-09T22:59:11.399Z,101122.84
2023-06-09T23:01:37.933Z,101116.06
2023-06-09T23:04:11.575Z,101117.44
2023-06-09T23:06:39.240Z,101106.28
2023-06-09T23:09:05.909Z,101109.31
2023-06-09T23:11:32.555Z,101106.81
2023-06-09T23:13:59.899Z,101100.50
2023-06-09T23:16:26.354Z,101105.94
2023-06-09T23:18:53.745Z,101105.94
2023-06-09T23:21:23.297Z,101096.75
2023-06-09T23:23:52.736Z,101097.97
2023-06-09T23:26:19.360Z,101096.44
2023-06-09T23:28:45.993Z,101094.72
2023-06-09T23:31:12.487Z,101094.72
2023-06-09T23:33:39.941Z,101088.59
2023-06-09T23:36:06.602Z,101090.66
2023-06-09T23:38:33.081Z,101087.28
2023-06-09T23:40:59.893Z,101081.00
2023-06-09T23:43:26.492Z,101092.72
2023-06-09T23:45:54.333Z,101087.28
2023-06-09T23:48:21.282Z,101082.19
2023-06-09T23:50:47.896Z,101083.19
2023-06-09T23:53:21.620Z,101082.91
2023-06-09T23:55:48.639Z,101090.19
2023-06-09T23:58:15.504Z,101082.03
